sensor_id;sensor_type;location;lat;lon;timestamp;temperature;humidity
14283;DHT22;7225;59.282;18.344;2022-09-09T00:00:25;12.10;99.90
14283;DHT22;7225;59.282;18.344;2022-09-09T00:03:06;12.10;99.90
14283;DHT22;7225;59.282;18.344;2022-09-09T00:08:22;12.10;99.90
14283;DHT22;7225;59.282;18.344;2022-09-09T00:10:58;12.10;99.90
14283;DHT22;7225;59.282;18.344;2022-09-09T00:13:37;12.10;99.90
14283;DHT22;7225;59.282;18.344;2022-09-09T00:16:16;12.20;99.90
14283;DHT22;7225;59.282;18.344;2022-09-09T00:21:35;12.20;99.90
14283;DHT22;7225;59.282;18.344;2022-09-09T00:27:25;12.20;99.90
14283;DHT22;7225;59.282;18.344;2022-09-09T00:30:13;12.20;99.90
14283;DHT22;7225;59.282;18.344;2022-09-09T00:32:40;12.20;99.90
14283;DHT22;7225;59.282;18.344;2022-09-09T00:35:22;12.20;99.90
14283;DHT22;7225;59.282;18.344;2022-09-09T00:37:54;12.20;99.90
14283;DHT22;7225;59.282;18.344;2022-09-09T00:40:29;12.20;99.90
14283;DHT22;7225;59.282;18.344;2022-09-09T00:57:30;12.40;99.90
14283;DHT22;7225;59.282;18.344;2022-09-09T01:03:07;12.40;99.90
14283;DHT22;7225;59.282;18.344;2022-09-09T01:11:14;12.40;99.90
14283;DHT22;7225;59.282;18.344;2022-09-09T01:13:45;12.50;99.90
14283;DHT22;7225;59.282;18.344;2022-09-09T01:16:16;12.40;99.90
14283;DHT22;7225;59.282;18.344;2022-09-09T01:18:49;12.40;99.90
14283;DHT22;7225;59.282;18.344;2022-09-09T01:26:35;12.40;99.90
14283;DHT22;7225;59.282;18.344;2022-09-09T01:29:08;12.40;99.90
14283;DHT22;7225;59.282;18.344;2022-09-09T01:31:39;12.40;99.90
14283;DHT22;7225;59.282;18.344;2022-09-09T01:34:13;12.40;99.90
14283;DHT22;7225;59.282;18.344;2022-09-09T01:37:03;12.50;99.90
14283;DHT22;7225;59.282;18.344;2022-09-09T01:39:35;12.50;99.90
14283;DHT22;7225;59.282;18.344;2022-09-09T01:42:05;12.50;99.90
14283;DHT22;7225;59.282;18.344;2022-09-09T01:44:34;12.50;99.90
14283;DHT22;7225;59.282;18.344;2022-09-09T01:47:03;12.60;99.90
14283;DHT22;7225;59.282;18.344;2022-09-09T01:49:31;12.60;99.90
14283;DHT22;7225;59.282;18.344;2022-09-09T01:51:59;12.60;99.90
14283;DHT22;7225;59.282;18.344;2022-09-09T01:54:30;12.70;99.90
14283;DHT22;7225;59.282;18.344;2022-09-09T01:59:48;12.80;99.90
14283;DHT22;7225;59.282;18.344;2022-09-09T02:02:32;12.80;99.90
14283;DHT22;7225;59.282;18.344;2022-09-09T02:05:45;12.90;99.90
14283;DHT22;7225;59.282;18.344;2022-09-09T02:08:23;12.90;99.90
14283;DHT22;7225;59.282;18.344;2022-09-09T02:11:15;13.00;99.90
14283;DHT22;7225;59.282;18.344;2022-09-09T02:13:46;13.00;99.90
14283;DHT22;7225;59.282;18.344;2022-09-09T02:16:18;13.10;99.90
14283;DHT22;7225;59.282;18.344;2022-09-09T02:18:56;13.10;99.90
14283;DHT22;7225;59.282;18.344;2022-09-09T02:21:27;13.10;99.90
14283;DHT22;7225;59.282;18.344;2022-09-09T02:23:57;13.10;99.90
14283;DHT22;7225;59.282;18.344;2022-09-09T02:26:27;13.10;99.90
14283;DHT22;7225;59.282;18.344;2022-09-09T02:28:56;13.10;99.90
14283;DHT22;7225;59.282;18.344;2022-09-09T02:31:25;13.20;99.90
14283;DHT22;7225;59.282;18.344;2022-09-09T02:33:56;13.20;99.90
14283;DHT22;7225;59.282;18.344;2022-09-09T02:36:26;13.20;99.90
14283;DHT22;7225;59.282;18.344;2022-09-09T02:38:56;13.20;99.90
14283;DHT22;7225;59.282;18.344;2022-09-09T02:41:28;13.20;99.90
14283;DHT22;7225;59.282;18.344;2022-09-09T02:43:59;13.20;99.90
14283;DHT22;7225;59.282;18.344;2022-09-09T02:46:51;13.30;99.90
14283;DHT22;7225;59.282;18.344;2022-09-09T02:49:37;13.30;99.90
14283;DHT22;7225;59.282;18.344;2022-09-09T02:52:12;13.30;99.90
14283;DHT22;7225;59.282;18.344;2022-09-09T02:54:42;13.30;99.90
14283;DHT22;7225;59.282;18.344;2022-09-09T02:57:24;13.30;99.90
14283;DHT22;7225;59.282;18.344;2022-09-09T02:59:53;13.30;99.90
14283;DHT22;7225;59.282;18.344;2022-09-09T03:02:21;13.40;99.90
14283;DHT22;7225;59.282;18.344;2022-09-09T03:04:49;13.40;99.90
14283;DHT22;7225;59.282;18.344;2022-09-09T03:07:19;13.40;99.90
14283;DHT22;7225;59.282;18.344;2022-09-09T03:09:47;13.40;99.90
14283;DHT22;7225;59.282;18.344;2022-09-09T03:12:15;13.40;99.90
14283;DHT22;7225;59.282;18.344;2022-09-09T03:14:43;13.40;99.90
14283;DHT22;7225;59.282;18.344;2022-09-09T03:17:12;13.40;99.90
14283;DHT22;7225;59.282;18.344;2022-09-09T03:19:40;13.40;99.90
14283;DHT22;7225;59.282;18.344;2022-09-09T03:22:10;13.40;99.90
14283;DHT22;7225;59.282;18.344;2022-09-09T03:24:38;13.50;99.90
14283;DHT22;7225;59.282;18.344;2022-09-09T03:27:07;13.50;99.90
14283;DHT22;7225;59.282;18.344;2022-09-09T03:29:34;13.50;99.90
14283;DHT22;7225;59.282;18.344;2022-09-09T03:32:02;13.50;99.90
14283;DHT22;7225;59.282;18.344;2022-09-09T03:34:31;13.50;99.90
14283;DHT22;7225;59.282;18.344;2022-09-09T03:36:58;13.50;99.90
14283;DHT22;7225;59.282;18.344;2022-09-09T03:39:26;13.50;99.90
14283;DHT22;7225;59.282;18.344;2022-09-09T03:41:54;13.50;99.90
14283;DHT22;7225;59.282;18.344;2022-09-09T03:44:22;13.60;99.90
14283;DHT22;7225;59.282;18.344;2022-09-09T03:46:50;13.60;99.90
14283;DHT22;7225;59.282;18.344;2022-09-09T03:49:18;13.60;99.90
14283;DHT22;7225;59.282;18.344;2022-09-09T03:51:47;13.60;99.90
14283;DHT22;7225;59.282;18.344;2022-09-09T03:54:15;13.60;99.90
14283;DHT22;7225;59.282;18.344;2022-09-09T03:56:43;13.60;99.90
14283;DHT22;7225;59.282;18.344;2022-09-09T03:59:11;13.60;99.90
14283;DHT22;7225;59.282;18.344;2022-09-09T04:01:39;13.60;99.90
14283;DHT22;7225;59.282;18.344;2022-09-09T04:04:07;13.60;99.90
14283;DHT22;7225;59.282;18.344;2022-09-09T04:06:36;13.60;99.90
14283;DHT22;7225;59.282;18.344;2022-09-09T04:09:03;13.60;99.90
14283;DHT22;7225;59.282;18.344;2022-09-09T04:11:31;13.60;99.90
14283;DHT22;7225;59.282;18.344;2022-09-09T04:13:58;13.60;99.90
14283;DHT22;7225;59.282;18.344;2022-09-09T04:16:25;13.60;99.90
14283;DHT22;7225;59.282;18.344;2022-09-09T04:18:52;13.70;99.90
14283;DHT22;7225;59.282;18.344;2022-09-09T04:21:20;13.70;99.90
14283;DHT22;7225;59.282;18.344;2022-09-09T04:23:48;13.70;99.90
14283;DHT22;7225;59.282;18.344;2022-09-09T04:26:14;13.70;99.90
14283;DHT22;7225;59.282;18.344;2022-09-09T04:28:41;13.70;99.90
14283;DHT22;7225;59.282;18.344;2022-09-09T04:31:20;13.80;99.90
14283;DHT22;7225;59.282;18.344;2022-09-09T04:33:50;13.70;99.90
14283;DHT22;7225;59.282;18.344;2022-09-09T04:36:19;13.80;99.90
14283;DHT22;7225;59.282;18.344;2022-09-09T04:38:47;13.80;99.90
14283;DHT22;7225;59.282;18.344;2022-09-09T04:41:16;13.80;99.90
14283;DHT22;7225;59.282;18.344;2022-09-09T04:43:44;13.80;99.90
14283;DHT22;7225;59.282;18.344;2022-09-09T04:46:11;13.90;99.90
14283;DHT22;7225;59.282;18.344;2022-09-09T04:48:39;13.90;99.90
14283;DHT22;7225;59.282;18.344;2022-09-09T04:51:11;13.90;99.90
14283;DHT22;7225;59.282;18.344;2022-09-09T04:53:39;13.90;99.90
14283;DHT22;7225;59.282;18.344;2022-09-09T04:56:12;13.90;99.90
14283;DHT22;7225;59.282;18.344;2022-09-09T04:58:41;13.90;99.90
14283;DHT22;7225;59.282;18.344;2022-09-09T05:01:17;13.90;99.90
14283;DHT22;7225;59.282;18.344;2022-09-09T05:03:45;14.00;99.90
14283;DHT22;7225;59.282;18.344;2022-09-09T05:06:16;14.00;99.90
14283;DHT22;7225;59.282;18.344;2022-09-09T05:08:44;14.00;99.90
14283;DHT22;7225;59.282;18.344;2022-09-09T05:11:19;14.00;99.90
14283;DHT22;7225;59.282;18.344;2022-09-09T05:13:46;14.00;99.90
14283;DHT22;7225;59.282;18.344;2022-09-09T05:16:14;14.00;99.90
14283;DHT22;7225;59.282;18.344;2022-09-09T05:18:43;14.10;99.90
14283;DHT22;7225;59.282;18.344;2022-09-09T05:21:12;14.00;99.90
14283;DHT22;7225;59.282;18.344;2022-09-09T05:23:41;14.00;99.90
14283;DHT22;7225;59.282;18.344;2022-09-09T05:26:14;14.00;99.90
14283;DHT22;7225;59.282;18.344;2022-09-09T05:28:44;14.00;99.90
14283;DHT22;7225;59.282;18.344;2022-09-09T05:31:13;14.00;99.90
14283;DHT22;7225;59.282;18.344;2022-09-09T05:33:41;14.00;99.90
14283;DHT22;7225;59.282;18.344;2022-09-09T05:36:14;14.00;99.90
14283;DHT22;7225;59.282;18.344;2022-09-09T05:38:43;14.00;99.90
14283;DHT22;7225;59.282;18.344;2022-09-09T05:41:11;14.00;99.90
14283;DHT22;7225;59.282;18.344;2022-09-09T05:43:39;14.00;99.90
14283;DHT22;7225;59.282;18.344;2022-09-09T05:46:08;14.10;99.90
14283;DHT22;7225;59.282;18.344;2022-09-09T05:48:41;14.10;99.90
14283;DHT22;7225;59.282;18.344;2022-09-09T05:51:12;14.10;99.90
14283;DHT22;7225;59.282;18.344;2022-09-09T05:53:40;14.10;99.90
14283;DHT22;7225;59.282;18.344;2022-09-09T05:56:09;14.20;99.90
14283;DHT22;7225;59.282;18.344;2022-09-09T05:58:39;14.20;99.90
14283;DHT22;7225;59.282;18.344;2022-09-09T06:03:39;14.10;99.90
14283;DHT22;7225;59.282;18.344;2022-09-09T06:06:12;14.10;99.90
14283;DHT22;7225;59.282;18.344;2022-09-09T06:08:42;14.10;99.90
14283;DHT22;7225;59.282;18.344;2022-09-09T06:11:23;14.10;99.90
14283;DHT22;7225;59.282;18.344;2022-09-09T06:13:52;14.10;99.90
14283;DHT22;7225;59.282;18.344;2022-09-09T06:16:24;14.10;99.90
14283;DHT22;7225;59.282;18.344;2022-09-09T06:18:54;14.10;99.90
14283;DHT22;7225;59.282;18.344;2022-09-09T06:21:24;14.20;99.90
14283;DHT22;7225;59.282;18.344;2022-09-09T06:23:52;14.20;99.90
14283;DHT22;7225;59.282;18.344;2022-09-09T06:26:35;14.20;99.90
14283;DHT22;7225;59.282;18.344;2022-09-09T06:29:08;14.20;99.90
14283;DHT22;7225;59.282;18.344;2022-09-09T06:31:37;14.20;99.90
14283;DHT22;7225;59.282;18.344;2022-09-09T06:34:07;14.30;99.90
14283;DHT22;7225;59.282;18.344;2022-09-09T06:36:37;14.30;99.90
14283;DHT22;7225;59.282;18.344;2022-09-09T06:39:08;14.30;99.90
14283;DHT22;7225;59.282;18.344;2022-09-09T06:41:42;14.30;99.90
14283;DHT22;7225;59.282;18.344;2022-09-09T06:44:09;14.30;99.90
14283;DHT22;7225;59.282;18.344;2022-09-09T06:46:39;14.40;99.90
14283;DHT22;7225;59.282;18.344;2022-09-09T06:49:09;14.40;99.90
14283;DHT22;7225;59.282;18.344;2022-09-09T06:51:41;14.40;99.90
14283;DHT22;7225;59.282;18.344;2022-09-09T06:54:11;14.60;99.90
14283;DHT22;7225;59.282;18.344;2022-09-09T06:56:42;14.60;99.90
14283;DHT22;7225;59.282;18.344;2022-09-09T06:59:10;14.70;99.90
14283;DHT22;7225;59.282;18.344;2022-09-09T07:01:41;14.90;99.90
14283;DHT22;7225;59.282;18.344;2022-09-09T07:04:10;14.90;99.90
14283;DHT22;7225;59.282;18.344;2022-09-09T07:06:40;14.90;99.90
14283;DHT22;7225;59.282;18.344;2022-09-09T07:09:14;14.80;99.90
14283;DHT22;7225;59.282;18.344;2022-09-09T07:11:49;14.90;99.90
14283;DHT22;7225;59.282;18.344;2022-09-09T07:14:20;14.90;99.90
14283;DHT22;7225;59.282;18.344;2022-09-09T07:16:48;15.00;99.90
14283;DHT22;7225;59.282;18.344;2022-09-09T07:19:16;15.10;99.90
14283;DHT22;7225;59.282;18.344;2022-09-09T07:21:45;15.10;99.90
14283;DHT22;7225;59.282;18.344;2022-09-09T07:24:12;15.10;99.90
14283;DHT22;7225;59.282;18.344;2022-09-09T07:26:40;15.10;99.90
14283;DHT22;7225;59.282;18.344;2022-09-09T07:29:08;15.20;99.90
14283;DHT22;7225;59.282;18.344;2022-09-09T07:31:38;15.30;99.90
14283;DHT22;7225;59.282;18.344;2022-09-09T07:34:08;15.20;99.90
14283;DHT22;7225;59.282;18.344;2022-09-09T07:36:38;15.10;99.90
14283;DHT22;7225;59.282;18.344;2022-09-09T07:39:12;15.00;99.90
14283;DHT22;7225;59.282;18.344;2022-09-09T07:41:47;15.00;99.90
14283;DHT22;7225;59.282;18.344;2022-09-09T07:44:20;14.90;99.90
14283;DHT22;7225;59.282;18.344;2022-09-09T07:46:52;15.00;99.90
14283;DHT22;7225;59.282;18.344;2022-09-09T07:49:22;15.00;99.90
14283;DHT22;7225;59.282;18.344;2022-09-09T07:51:56;15.10;99.90
14283;DHT22;7225;59.282;18.344;2022-09-09T07:54:25;15.00;99.90
14283;DHT22;7225;59.282;18.344;2022-09-09T07:56:54;15.00;99.90
14283;DHT22;7225;59.282;18.344;2022-09-09T07:59:21;15.00;99.90
14283;DHT22;7225;59.282;18.344;2022-09-09T08:01:50;15.00;99.90
14283;DHT22;7225;59.282;18.344;2022-09-09T08:04:22;15.00;99.90
14283;DHT22;7225;59.282;18.344;2022-09-09T08:06:57;15.00;99.90
14283;DHT22;7225;59.282;18.344;2022-09-09T08:09:26;15.00;99.90
14283;DHT22;7225;59.282;18.344;2022-09-09T08:11:56;15.10;99.90
14283;DHT22;7225;59.282;18.344;2022-09-09T08:14:24;15.20;99.90
14283;DHT22;7225;59.282;18.344;2022-09-09T08:16:55;15.30;99.90
14283;DHT22;7225;59.282;18.344;2022-09-09T08:19:25;15.20;99.90
14283;DHT22;7225;59.282;18.344;2022-09-09T08:21:53;15.20;99.90
14283;DHT22;7225;59.282;18.344;2022-09-09T08:24:20;15.20;99.90
14283;DHT22;7225;59.282;18.344;2022-09-09T08:26:48;15.20;99.90
14283;DHT22;7225;59.282;18.344;2022-09-09T08:29:17;15.10;99.90
14283;DHT22;7225;59.282;18.344;2022-09-09T08:31:55;15.10;99.90
14283;DHT22;7225;59.282;18.344;2022-09-09T08:34:26;15.10;99.90
14283;DHT22;7225;59.282;18.344;2022-09-09T08:36:54;15.20;99.90
14283;DHT22;7225;59.282;18.344;2022-09-09T08:39:23;15.20;99.90
14283;DHT22;7225;59.282;18.344;2022-09-09T08:42:12;15.20;99.90
14283;DHT22;7225;59.282;18.344;2022-09-09T08:45:14;15.20;99.90
14283;DHT22;7225;59.282;18.344;2022-09-09T08:50:37;15.20;99.90
14283;DHT22;7225;59.282;18.344;2022-09-09T08:53:22;15.20;99.90
14283;DHT22;7225;59.282;18.344;2022-09-09T08:55:54;15.30;99.90
14283;DHT22;7225;59.282;18.344;2022-09-09T08:58:27;15.40;99.90
14283;DHT22;7225;59.282;18.344;2022-09-09T09:04:21;15.40;99.90
14283;DHT22;7225;59.282;18.344;2022-09-09T09:10:03;15.40;99.90
14283;DHT22;7225;59.282;18.344;2022-09-09T09:12:57;15.50;99.90
14283;DHT22;7225;59.282;18.344;2022-09-09T09:15:32;15.60;99.90
14283;DHT22;7225;59.282;18.344;2022-09-09T09:18:05;15.60;99.90
14283;DHT22;7225;59.282;18.344;2022-09-09T09:21:00;15.70;99.90
14283;DHT22;7225;59.282;18.344;2022-09-09T09:23:45;15.70;99.90
14283;DHT22;7225;59.282;18.344;2022-09-09T09:26:16;15.70;99.90
14283;DHT22;7225;59.282;18.344;2022-09-09T09:28:44;15.60;99.90
14283;DHT22;7225;59.282;18.344;2022-09-09T09:31:13;15.70;99.90
14283;DHT22;7225;59.282;18.344;2022-09-09T09:33:50;15.70;99.90
14283;DHT22;7225;59.282;18.344;2022-09-09T09:36:17;15.80;99.90
14283;DHT22;7225;59.282;18.344;2022-09-09T09:38:56;15.80;99.90
14283;DHT22;7225;59.282;18.344;2022-09-09T09:41:45;15.90;99.90
14283;DHT22;7225;59.282;18.344;2022-09-09T09:44:31;16.00;99.90
14283;DHT22;7225;59.282;18.344;2022-09-09T09:47:08;16.20;99.90
14283;DHT22;7225;59.282;18.344;2022-09-09T09:49:50;16.40;99.90
14283;DHT22;7225;59.282;18.344;2022-09-09T09:52:24;16.30;99.90
14283;DHT22;7225;59.282;18.344;2022-09-09T09:54:55;16.50;99.90
14283;DHT22;7225;59.282;18.344;2022-09-09T09:57:26;16.70;99.90
14283;DHT22;7225;59.282;18.344;2022-09-09T10:00:24;16.80;99.90
14283;DHT22;7225;59.282;18.344;2022-09-09T10:02:52;17.00;99.90
14283;DHT22;7225;59.282;18.344;2022-09-09T10:05:24;16.90;99.90
14283;DHT22;7225;59.282;18.344;2022-09-09T10:08:13;16.70;99.90
14283;DHT22;7225;59.282;18.344;2022-09-09T10:16:36;16.70;99.90
14283;DHT22;7225;59.282;18.344;2022-09-09T10:19:15;16.80;99.90
14283;DHT22;7225;59.282;18.344;2022-09-09T10:22:15;17.00;99.90
14283;DHT22;7225;59.282;18.344;2022-09-09T10:36:24;16.60;99.90
14283;DHT22;7225;59.282;18.344;2022-09-09T10:39:05;16.80;99.90
14283;DHT22;7225;59.282;18.344;2022-09-09T10:42:07;17.00;99.90
14283;DHT22;7225;59.282;18.344;2022-09-09T10:50:33;16.90;99.90
14283;DHT22;7225;59.282;18.344;2022-09-09T10:53:36;16.90;99.90
14283;DHT22;7225;59.282;18.344;2022-09-09T10:56:10;16.80;99.90
14283;DHT22;7225;59.282;18.344;2022-09-09T10:58:52;16.90;99.90
14283;DHT22;7225;59.282;18.344;2022-09-09T11:01:25;16.90;99.90
14283;DHT22;7225;59.282;18.344;2022-09-09T11:04:03;16.90;99.90
14283;DHT22;7225;59.282;18.344;2022-09-09T11:06:37;17.00;99.90
14283;DHT22;7225;59.282;18.344;2022-09-09T11:09:15;17.20;99.90
14283;DHT22;7225;59.282;18.344;2022-09-09T11:11:55;17.40;99.90
14283;DHT22;7225;59.282;18.344;2022-09-09T11:14:33;17.50;99.90
14283;DHT22;7225;59.282;18.344;2022-09-09T11:17:13;17.70;99.90
14283;DHT22;7225;59.282;18.344;2022-09-09T11:19:44;17.90;99.90
14283;DHT22;7225;59.282;18.344;2022-09-09T11:27:23;17.80;99.90
14283;DHT22;7225;59.282;18.344;2022-09-09T11:33:08;17.70;99.90
14283;DHT22;7225;59.282;18.344;2022-09-09T11:36:03;17.80;99.90
14283;DHT22;7225;59.282;18.344;2022-09-09T11:38:45;18.00;99.90
14283;DHT22;7225;59.282;18.344;2022-09-09T11:41:20;17.80;99.90
14283;DHT22;7225;59.282;18.344;2022-09-09T11:43:51;17.70;99.90
14283;DHT22;7225;59.282;18.344;2022-09-09T11:46:34;17.70;99.90
14283;DHT22;7225;59.282;18.344;2022-09-09T11:49:05;18.00;99.90
14283;DHT22;7225;59.282;18.344;2022-09-09T11:51:37;17.90;99.90
14283;DHT22;7225;59.282;18.344;2022-09-09T11:54:32;17.90;99.90
14283;DHT22;7225;59.282;18.344;2022-09-09T11:57:02;18.10;99.90
14283;DHT22;7225;59.282;18.344;2022-09-09T11:59:32;18.10;99.90
14283;DHT22;7225;59.282;18.344;2022-09-09T12:05:05;18.30;99.90
14283;DHT22;7225;59.282;18.344;2022-09-09T12:07:45;18.30;99.90
14283;DHT22;7225;59.282;18.344;2022-09-09T12:10:30;18.60;99.90
14283;DHT22;7225;59.282;18.344;2022-09-09T12:15:51;18.50;99.90
14283;DHT22;7225;59.282;18.344;2022-09-09T12:18:34;18.60;99.90
14283;DHT22;7225;59.282;18.344;2022-09-09T12:21:32;18.60;99.90
14283;DHT22;7225;59.282;18.344;2022-09-09T12:24:09;18.70;99.90
14283;DHT22;7225;59.282;18.344;2022-09-09T12:26:50;18.80;99.90
14283;DHT22;7225;59.282;18.344;2022-09-09T12:32:22;18.40;99.90
14283;DHT22;7225;59.282;18.344;2022-09-09T12:34:57;18.60;99.90
14283;DHT22;7225;59.282;18.344;2022-09-09T12:37:41;18.70;99.90
14283;DHT22;7225;59.282;18.344;2022-09-09T12:40:24;18.70;99.90
14283;DHT22;7225;59.282;18.344;2022-09-09T12:42:54;18.60;99.90
14283;DHT22;7225;59.282;18.344;2022-09-09T12:45:25;18.50;99.90
14283;DHT22;7225;59.282;18.344;2022-09-09T12:48:09;18.20;99.90
14283;DHT22;7225;59.282;18.344;2022-09-09T12:50:46;17.90;99.90
14283;DHT22;7225;59.282;18.344;2022-09-09T12:53:35;17.80;99.90
14283;DHT22;7225;59.282;18.344;2022-09-09T12:56:19;17.90;99.90
14283;DHT22;7225;59.282;18.344;2022-09-09T12:58:50;18.10;99.90
14283;DHT22;7225;59.282;18.344;2022-09-09T13:01:31;18.10;99.90
14283;DHT22;7225;59.282;18.344;2022-09-09T13:04:00;18.20;99.90
14283;DHT22;7225;59.282;18.344;2022-09-09T13:06:31;18.00;99.90
14283;DHT22;7225;59.282;18.344;2022-09-09T13:09:02;17.70;99.90
14283;DHT22;7225;59.282;18.344;2022-09-09T13:11:42;17.80;99.90
14283;DHT22;7225;59.282;18.344;2022-09-09T13:14:18;17.60;99.90
14283;DHT22;7225;59.282;18.344;2022-09-09T13:16:56;17.50;99.90
14283;DHT22;7225;59.282;18.344;2022-09-09T13:19:26;17.60;99.90
14283;DHT22;7225;59.282;18.344;2022-09-09T13:21:56;17.70;99.90
14283;DHT22;7225;59.282;18.344;2022-09-09T13:24:30;17.80;99.90
14283;DHT22;7225;59.282;18.344;2022-09-09T13:27:24;17.80;99.90
14283;DHT22;7225;59.282;18.344;2022-09-09T13:29:54;17.80;99.90
14283;DHT22;7225;59.282;18.344;2022-09-09T13:32:27;17.60;99.90
14283;DHT22;7225;59.282;18.344;2022-09-09T13:35:00;17.80;99.90
14283;DHT22;7225;59.282;18.344;2022-09-09T13:37:37;17.70;99.90
14283;DHT22;7225;59.282;18.344;2022-09-09T13:40:05;17.90;99.90
14283;DHT22;7225;59.282;18.344;2022-09-09T13:42:39;17.80;99.90
14283;DHT22;7225;59.282;18.344;2022-09-09T13:45:23;17.90;99.90
14283;DHT22;7225;59.282;18.344;2022-09-09T13:47:55;18.00;99.90
14283;DHT22;7225;59.282;18.344;2022-09-09T13:50:28;17.90;99.90
14283;DHT22;7225;59.282;18.344;2022-09-09T13:52:58;17.70;99.90
14283;DHT22;7225;59.282;18.344;2022-09-09T13:55:29;17.50;99.90
14283;DHT22;7225;59.282;18.344;2022-09-09T13:57:59;17.30;99.90
14283;DHT22;7225;59.282;18.344;2022-09-09T14:00:33;17.20;99.90
14283;DHT22;7225;59.282;18.344;2022-09-09T14:03:01;17.30;99.90
14283;DHT22;7225;59.282;18.344;2022-09-09T14:05:32;17.40;99.90
14283;DHT22;7225;59.282;18.344;2022-09-09T14:08:03;17.40;99.90
14283;DHT22;7225;59.282;18.344;2022-09-09T14:10:32;17.30;99.90
14283;DHT22;7225;59.282;18.344;2022-09-09T14:13:02;17.20;99.90
14283;DHT22;7225;59.282;18.344;2022-09-09T14:15:32;17.30;99.90
14283;DHT22;7225;59.282;18.344;2022-09-09T14:17:59;17.50;99.90
14283;DHT22;7225;59.282;18.344;2022-09-09T14:20:28;17.70;99.90
14283;DHT22;7225;59.282;18.344;2022-09-09T14:22:56;17.80;99.90
14283;DHT22;7225;59.282;18.344;2022-09-09T14:25:31;17.60;99.90
14283;DHT22;7225;59.282;18.344;2022-09-09T14:27:59;17.40;99.90
14283;DHT22;7225;59.282;18.344;2022-09-09T14:30:28;17.60;99.90
14283;DHT22;7225;59.282;18.344;2022-09-09T14:32:56;17.50;99.90
14283;DHT22;7225;59.282;18.344;2022-09-09T14:35:27;17.30;99.90
14283;DHT22;7225;59.282;18.344;2022-09-09T14:37:55;17.30;99.90
14283;DHT22;7225;59.282;18.344;2022-09-09T14:40:23;17.30;99.90
14283;DHT22;7225;59.282;18.344;2022-09-09T14:42:52;17.40;99.90
14283;DHT22;7225;59.282;18.344;2022-09-09T14:45:21;17.40;99.90
14283;DHT22;7225;59.282;18.344;2022-09-09T14:47:50;17.40;99.90
14283;DHT22;7225;59.282;18.344;2022-09-09T14:50:19;17.50;99.90
14283;DHT22;7225;59.282;18.344;2022-09-09T14:52:47;17.40;99.90
14283;DHT22;7225;59.282;18.344;2022-09-09T14:55:17;17.50;99.90
14283;DHT22;7225;59.282;18.344;2022-09-09T14:57:47;17.40;99.90
14283;DHT22;7225;59.282;18.344;2022-09-09T15:00:15;17.40;99.90
14283;DHT22;7225;59.282;18.344;2022-09-09T15:02:44;17.40;99.90
14283;DHT22;7225;59.282;18.344;2022-09-09T15:05:13;17.30;99.90
14283;DHT22;7225;59.282;18.344;2022-09-09T15:07:42;17.20;99.90
14283;DHT22;7225;59.282;18.344;2022-09-09T15:10:10;17.20;99.90
14283;DHT22;7225;59.282;18.344;2022-09-09T15:12:38;17.00;99.90
14283;DHT22;7225;59.282;18.344;2022-09-09T15:15:08;17.00;99.90
14283;DHT22;7225;59.282;18.344;2022-09-09T15:17:35;17.00;99.90
14283;DHT22;7225;59.282;18.344;2022-09-09T15:20:04;16.90;99.90
14283;DHT22;7225;59.282;18.344;2022-09-09T15:22:35;16.80;99.90
14283;DHT22;7225;59.282;18.344;2022-09-09T15:25:05;16.70;99.90
14283;DHT22;7225;59.282;18.344;2022-09-09T15:27:33;16.60;99.90
14283;DHT22;7225;59.282;18.344;2022-09-09T15:30:03;16.50;99.90
14283;DHT22;7225;59.282;18.344;2022-09-09T15:32:33;16.50;99.90
14283;DHT22;7225;59.282;18.344;2022-09-09T15:35:01;16.30;99.90
14283;DHT22;7225;59.282;18.344;2022-09-09T15:37:29;16.20;99.90
14283;DHT22;7225;59.282;18.344;2022-09-09T15:39:57;16.10;99.90
14283;DHT22;7225;59.282;18.344;2022-09-09T15:42:29;16.10;99.90
14283;DHT22;7225;59.282;18.344;2022-09-09T15:44:57;16.10;99.90
14283;DHT22;7225;59.282;18.344;2022-09-09T15:47:24;16.10;99.90
14283;DHT22;7225;59.282;18.344;2022-09-09T15:49:53;16.00;99.90
14283;DHT22;7225;59.282;18.344;2022-09-09T15:52:21;15.90;99.90
14283;DHT22;7225;59.282;18.344;2022-09-09T15:54:51;15.90;99.90
14283;DHT22;7225;59.282;18.344;2022-09-09T15:57:18;15.80;99.90
14283;DHT22;7225;59.282;18.344;2022-09-09T15:59:47;15.80;99.90
14283;DHT22;7225;59.282;18.344;2022-09-09T16:02:15;15.70;99.90
14283;DHT22;7225;59.282;18.344;2022-09-09T16:04:43;15.60;99.90
14283;DHT22;7225;59.282;18.344;2022-09-09T16:07:11;15.60;99.90
14283;DHT22;7225;59.282;18.344;2022-09-09T16:09:40;15.60;99.90
14283;DHT22;7225;59.282;18.344;2022-09-09T16:12:07;15.60;99.90
14283;DHT22;7225;59.282;18.344;2022-09-09T16:14:37;15.60;99.90
14283;DHT22;7225;59.282;18.344;2022-09-09T16:17:06;15.50;99.90
14283;DHT22;7225;59.282;18.344;2022-09-09T16:19:35;15.50;99.90
14283;DHT22;7225;59.282;18.344;2022-09-09T16:22:04;15.50;99.90
14283;DHT22;7225;59.282;18.344;2022-09-09T16:24:32;15.40;99.90
14283;DHT22;7225;59.282;18.344;2022-09-09T16:27:00;15.40;99.90
14283;DHT22;7225;59.282;18.344;2022-09-09T16:29:28;15.40;99.90
14283;DHT22;7225;59.282;18.344;2022-09-09T16:31:56;15.40;99.90
14283;DHT22;7225;59.282;18.344;2022-09-09T16:34:29;15.30;99.90
14283;DHT22;7225;59.282;18.344;2022-09-09T16:36:58;15.40;99.90
14283;DHT22;7225;59.282;18.344;2022-09-09T16:39:27;15.40;99.90
14283;DHT22;7225;59.282;18.344;2022-09-09T16:41:55;15.30;99.90
14283;DHT22;7225;59.282;18.344;2022-09-09T16:44:23;15.30;99.90
14283;DHT22;7225;59.282;18.344;2022-09-09T16:46:54;15.30;99.90
14283;DHT22;7225;59.282;18.344;2022-09-09T16:49:28;15.30;99.90
14283;DHT22;7225;59.282;18.344;2022-09-09T16:51:58;15.20;99.90
14283;DHT22;7225;59.282;18.344;2022-09-09T16:54:26;15.20;99.90
14283;DHT22;7225;59.282;18.344;2022-09-09T16:56:54;15.20;99.90
14283;DHT22;7225;59.282;18.344;2022-09-09T16:59:23;15.20;99.90
14283;DHT22;7225;59.282;18.344;2022-09-09T17:01:52;15.10;99.90
14283;DHT22;7225;59.282;18.344;2022-09-09T17:04:26;15.10;99.90
14283;DHT22;7225;59.282;18.344;2022-09-09T17:06:54;15.00;99.90
14283;DHT22;7225;59.282;18.344;2022-09-09T17:09:23;14.90;99.90
14283;DHT22;7225;59.282;18.344;2022-09-09T17:11:55;14.90;99.90
14283;DHT22;7225;59.282;18.344;2022-09-09T17:14:23;14.80;99.90
14283;DHT22;7225;59.282;18.344;2022-09-09T17:16:51;14.90;99.90
14283;DHT22;7225;59.282;18.344;2022-09-09T17:19:19;14.80;99.90
14283;DHT22;7225;59.282;18.344;2022-09-09T17:21:48;14.80;99.90
14283;DHT22;7225;59.282;18.344;2022-09-09T17:24:35;14.70;99.90
14283;DHT22;7225;59.282;18.344;2022-09-09T17:27:06;14.60;99.90
14283;DHT22;7225;59.282;18.344;2022-09-09T17:29:35;14.60;99.90
14283;DHT22;7225;59.282;18.344;2022-09-09T17:32:04;14.60;99.90
14283;DHT22;7225;59.282;18.344;2022-09-09T17:34:32;14.50;99.90